PWSweather.com
Personal Weather Stations
Station Observations
KVTSWANT6
Maquam ShoreCamp Maquam, Swanton, VT 05488

Maquam ShoreCamp MaquamSwanton, VT 05488

Lat: 44.90250015, Lon: -73.16666412

Elevation: 109

Station Type: W-1090

Latest ConditionsUpdated 5:40:00 PM EDT Saturday, Oct 25, 2014
Currently Today's Max Today's Min Today's Average
Temperature 52.5°F11.4°C 58.5°F14.7°C 40.8°F4.9°C 48.6°F9.2°C
Dew Point 51.7°F10.9°C 51.8°F11.0°C 40.6°F4.8°C 46.1°F7.8°C
Winds 3.1 mph SSE5.0 kmh SSE 14.5 mph S23.3 kmh S - 4.6 mph 7.4 kmh
Wind Gusts 6.9 mph11.1 kmh 18.3 mph29.5 kmh - -
Humidity 97% 99% 75% 92%
Pressure 29.26 in990.9 mb 29.55 in1000.7 mb 29.25 in990.5 mb -
Precipitation - 0.04 in1.0 mm - -
Hour Temp Dew Point Humidity Winds Wind Gusts Pressure Precip Precip Rate Daily Precip Total
05:40 PM 52.5°F11.4°C 51.7°F10.9°C 97% 3.1 mph SSE5.0 kmh SSE 6.9 mph11.1 kmh 29.26 in990.9 mb 0.04 in1.0 mm 0.00 in/hr0.0 mm/hr 0.04 in1.0 mm
05:30 PM 52.9°F11.6°C 51.8°F11.0°C 96% 3.1 mph SSE5.0 kmh SSE 6.9 mph11.1 kmh 29.25 in990.5 mb 0.04 in1.0 mm 0.12 in/hr3.0 mm/hr 0.04 in1.0 mm
05:20 PM 53.2°F11.8°C 51.6°F10.9°C 94% 3.1 mph SSE5.0 kmh SSE 8.3 mph13.4 kmh 29.26 in990.9 mb 0.02 in0.5 mm 0.06 in/hr1.5 mm/hr 0.02 in0.5 mm
05:10 PM 54.0°F12.2°C 51.7°F10.9°C 92% 3.8 mph SSE6.1 kmh SSE 10.7 mph17.2 kmh 29.27 in991.2 mb 0.01 in0.3 mm 0.00 in/hr0.0 mm/hr 0.01 in0.3 mm
05:00 PM 54.7°F12.6°C 51.2°F10.7°C 88% 4.5 mph S7.2 kmh S 16.8 mph27.0 kmh 29.28 in991.5 mb 0.01 in0.3 mm 0.01 in/hr0.3 mm/hr 0.01 in0.3 mm
04:50 PM 55.4°F13.0°C 50.7°F10.4°C 84% 3.8 mph S6.1 kmh S 12.1 mph19.5 kmh 29.28 in991.5 mb 0.00 in0.0 mm 0.00 in/hr0.0 mm/hr 0.00 in0.0 mm
04:40 PM 55.9°F13.3°C 49.9°F9.9°C 80% 3.1 mph S5.0 kmh S 9.2 mph14.8 kmh 29.28 in991.5 mb 0.00 in0.0 mm 0.00 in/hr0.0 mm/hr 0.00 in0.0 mm
04:30 PM 56.1°F13.4°C 49.0°F9.4°C 77% 3.8 mph SSE6.1 kmh SSE 8.3 mph13.4 kmh 29.27 in991.2 mb 0.00 in0.0 mm 0.00 in/hr0.0 mm/hr 0.00 in0.0 mm
04:20 PM 56.7°F13.7°C 49.2°F9.6°C 76% 3.1 mph SSE5.0 kmh SSE 7.6 mph12.2 kmh 29.27 in991.2 mb 0.00 in0.0 mm 0.00 in/hr0.0 mm/hr 0.00 in0.0 mm
04:10 PM 57.0°F13.9°C 49.5°F9.7°C 76% 3.8 mph SSE6.1 kmh SSE 9.8 mph15.8 kmh 29.28 in991.5 mb 0.00 in0.0 mm 0.00 in/hr0.0 mm/hr 0.00 in0.0 mm
04:00 PM 57.0°F13.9°C 49.5°F9.7°C 76% 3.8 mph S6.1 kmh S 10.7 mph17.2 kmh 29.29 in991.9 mb 0.00 in0.0 mm 0.00 in/hr0.0 mm/hr 0.00 in0.0 mm
03:50 PM 58.5°F14.7°C 50.6°F10.3°C 75% 3.1 mph S5.0 kmh S 10.7 mph17.2 kmh 29.29 in991.9 mb 0.00 in0.0 mm 0.00 in/hr0.0 mm/hr 0.00 in0.0 mm
03:40 PM 58.1°F14.5°C 50.6°F10.3°C 76% 3.1 mph S5.0 kmh S 10.7 mph17.2 kmh 29.29 in991.9 mb 0.00 in0.0 mm 0.00 in/hr0.0 mm/hr 0.00 in0.0 mm
03:30 PM 57.9°F14.4°C 50.4°F10.2°C 76% 4.5 mph SSE7.2 kmh SSE 6.9 mph11.1 kmh 29.30 in992.2 mb 0.00 in0.0 mm 0.00 in/hr0.0 mm/hr 0.00 in0.0 mm
03:20 PM 55.6°F13.1°C 49.5°F9.7°C 80% 3.1 mph S5.0 kmh S 8.3 mph13.4 kmh 29.31 in992.6 mb 0.00 in0.0 mm 0.00 in/hr0.0 mm/hr 0.00 in0.0 mm
03:10 PM 55.2°F12.9°C 49.8°F9.9°C 82% 2.2 mph S3.5 kmh S 9.2 mph14.8 kmh 29.31 in992.6 mb 0.00 in0.0 mm 0.00 in/hr0.0 mm/hr 0.00 in0.0 mm
03:00 PM 55.0°F12.8°C 50.3°F10.2°C 84% 6.9 mph S11.1 kmh S 13.0 mph20.9 kmh 29.32 in992.9 mb 0.00 in0.0 mm 0.00 in/hr0.0 mm/hr 0.00 in0.0 mm
02:50 PM 54.9°F12.7°C 50.1°F10.1°C 84% 9.2 mph S14.8 kmh S 15.9 mph25.6 kmh 29.33 in993.2 mb 0.00 in0.0 mm 0.00 in/hr0.0 mm/hr 0.00 in0.0 mm
02:40 PM 54.9°F12.7°C 51.4°F10.8°C 88% 12.1 mph S19.5 kmh S 17.4 mph28.0 kmh 29.34 in993.6 mb 0.00 in0.0 mm 0.00 in/hr0.0 mm/hr 0.00 in0.0 mm
02:30 PM 54.7°F12.6°C 51.2°F10.7°C 88% 14.5 mph S23.3 kmh S 16.8 mph27.0 kmh 29.33 in993.2 mb 0.00 in0.0 mm 0.00 in/hr0.0 mm/hr 0.00 in0.0 mm
02:20 PM 55.2°F12.9°C 51.7°F10.9°C 88% 12.1 mph S19.5 kmh S 15.2 mph24.5 kmh 29.34 in993.6 mb 0.00 in0.0 mm 0.00 in/hr0.0 mm/hr 0.00 in0.0 mm
02:10 PM 55.6°F13.1°C 51.8°F11.0°C 87% 11.4 mph SSW18.3 kmh SSW 15.2 mph24.5 kmh 29.34 in993.6 mb 0.00 in0.0 mm 0.00 in/hr0.0 mm/hr 0.00 in0.0 mm
02:00 PM 55.4°F13.0°C 51.6°F10.9°C 87% 9.2 mph SSW14.8 kmh SSW 13.0 mph20.9 kmh 29.34 in993.6 mb 0.00 in0.0 mm 0.00 in/hr0.0 mm/hr 0.00 in0.0 mm
01:50 PM 55.2°F12.9°C 50.5°F10.3°C 84% 5.4 mph S8.7 kmh S 12.1 mph19.5 kmh 29.34 in993.6 mb 0.00 in0.0 mm 0.00 in/hr0.0 mm/hr 0.00 in0.0 mm
01:40 PM 54.9°F12.7°C 51.1°F10.6°C 87% 6.9 mph S11.1 kmh S 15.2 mph24.5 kmh 29.34 in993.6 mb 0.00 in0.0 mm 0.00 in/hr0.0 mm/hr 0.00 in0.0 mm
01:30 PM 53.8°F12.1°C 51.8°F11.0°C 93% 12.1 mph S19.5 kmh S 15.2 mph24.5 kmh 29.35 in993.9 mb 0.00 in0.0 mm 0.00 in/hr0.0 mm/hr 0.00 in0.0 mm
01:20 PM 53.2°F11.8°C 51.3°F10.7°C 93% 10.7 mph S17.2 kmh S 17.4 mph28.0 kmh 29.36 in994.2 mb 0.00 in0.0 mm 0.00 in/hr0.0 mm/hr 0.00 in0.0 mm
01:10 PM 53.2°F11.8°C 51.6°F10.9°C 94% 12.1 mph S19.5 kmh S 17.4 mph28.0 kmh 29.36 in994.2 mb 0.00 in0.0 mm 0.00 in/hr0.0 mm/hr 0.00 in0.0 mm
01:00 PM 53.2°F11.8°C 51.3°F10.7°C 93% 11.4 mph S18.3 kmh S 16.8 mph27.0 kmh 29.37 in994.6 mb 0.00 in0.0 mm 0.00 in/hr0.0 mm/hr 0.00 in0.0 mm
12:50 PM 53.1°F11.7°C 51.1°F10.6°C 93% 11.4 mph SSW18.3 kmh SSW 15.9 mph25.6 kmh 29.38 in994.9 mb 0.00 in0.0 mm 0.00 in/hr0.0 mm/hr 0.00 in0.0 mm
12:40 PM 53.4°F11.9°C 51.2°F10.7°C 92% 9.2 mph S14.8 kmh S 15.2 mph24.5 kmh 29.38 in994.9 mb 0.00 in0.0 mm 0.00 in/hr0.0 mm/hr 0.00 in0.0 mm
12:30 PM 53.6°F12.0°C 49.8°F9.9°C 87% 7.6 mph S12.2 kmh S 13.6 mph21.9 kmh 29.39 in995.3 mb 0.00 in0.0 mm 0.00 in/hr0.0 mm/hr 0.00 in0.0 mm
12:20 PM 53.6°F12.0°C 49.2°F9.6°C 85% 3.8 mph S6.1 kmh S 12.1 mph19.5 kmh 29.40 in995.6 mb 0.00 in0.0 mm 0.00 in/hr0.0 mm/hr 0.00 in0.0 mm
12:10 PM 53.6°F12.0°C 47.3°F8.5°C 79% 3.8 mph S6.1 kmh S 11.4 mph18.3 kmh 29.41 in995.9 mb 0.00 in0.0 mm 0.00 in/hr0.0 mm/hr 0.00 in0.0 mm
12:00 PM 53.4°F11.9°C 46.4°F8.0°C 77% 7.6 mph S12.2 kmh S 11.4 mph18.3 kmh 29.41 in995.9 mb 0.00 in0.0 mm 0.00 in/hr0.0 mm/hr 0.00 in0.0 mm
11:50 AM 53.2°F11.8°C 48.2°F9.0°C 83% 7.6 mph S12.2 kmh S 13.0 mph20.9 kmh 29.43 in996.6 mb 0.00 in0.0 mm 0.00 in/hr0.0 mm/hr 0.00 in0.0 mm
11:40 AM 53.2°F11.8°C 48.5°F9.2°C 84% 8.3 mph S13.4 kmh S 13.6 mph21.9 kmh 29.44 in997.0 mb 0.00 in0.0 mm 0.00 in/hr0.0 mm/hr 0.00 in0.0 mm
11:30 AM 52.7°F11.5°C 48.0°F8.9°C 84% 8.3 mph SSW13.4 kmh SSW 12.1 mph19.5 kmh 29.44 in997.0 mb 0.00 in0.0 mm 0.00 in/hr0.0 mm/hr 0.00 in0.0 mm
11:20 AM 51.8°F11.0°C 46.5°F8.1°C 82% 7.6 mph S12.2 kmh S 13.6 mph21.9 kmh 29.45 in997.3 mb 0.00 in0.0 mm 0.00 in/hr0.0 mm/hr 0.00 in0.0 mm
11:10 AM 51.3°F10.7°C 46.9°F8.3°C 85% 4.5 mph S7.2 kmh S 13.6 mph21.9 kmh 29.46 in997.6 mb 0.00 in0.0 mm 0.00 in/hr0.0 mm/hr 0.00 in0.0 mm
11:00 AM 51.1°F10.6°C 47.4°F8.6°C 87% 9.8 mph SSW15.8 kmh SSW 15.9 mph25.6 kmh 29.46 in997.6 mb 0.00 in0.0 mm 0.00 in/hr0.0 mm/hr 0.00 in0.0 mm
10:50 AM 50.9°F10.5°C 48.4°F9.1°C 91% 8.3 mph S13.4 kmh S 18.3 mph29.5 kmh 29.46 in997.6 mb 0.00 in0.0 mm 0.00 in/hr0.0 mm/hr 0.00 in0.0 mm
10:40 AM 50.7°F10.4°C 48.8°F9.3°C 93% 13.0 mph S20.9 kmh S 17.4 mph28.0 kmh 29.47 in998.0 mb 0.00 in0.0 mm 0.00 in/hr0.0 mm/hr 0.00 in0.0 mm
10:30 AM 50.5°F10.3°C 48.6°F9.2°C 93% 9.8 mph S15.8 kmh S 17.4 mph28.0 kmh 29.48 in998.3 mb 0.00 in0.0 mm 0.00 in/hr0.0 mm/hr 0.00 in0.0 mm
10:20 AM 49.8°F9.9°C 48.2°F9.0°C 94% 10.7 mph S17.2 kmh S 17.4 mph28.0 kmh 29.48 in998.3 mb 0.00 in0.0 mm 0.00 in/hr0.0 mm/hr 0.00 in0.0 mm
10:10 AM 50.0°F10.0°C 48.9°F9.4°C 96% 10.7 mph SSW17.2 kmh SSW 16.8 mph27.0 kmh 29.48 in998.3 mb 0.00 in0.0 mm 0.00 in/hr0.0 mm/hr 0.00 in0.0 mm
10:00 AM 49.8°F9.9°C 49.3°F9.6°C 98% 12.1 mph S19.5 kmh S 15.9 mph25.6 kmh 29.48 in998.3 mb 0.00 in0.0 mm 0.00 in/hr0.0 mm/hr 0.00 in0.0 mm
09:50 AM 49.5°F9.7°C 48.6°F9.2°C 97% 4.5 mph SSW7.2 kmh SSW 15.9 mph25.6 kmh 29.49 in998.6 mb 0.00 in0.0 mm 0.00 in/hr0.0 mm/hr 0.00 in0.0 mm
09:40 AM 48.9°F9.4°C 47.6°F8.7°C 95% 6.9 mph S11.1 kmh S 12.1 mph19.5 kmh 29.49 in998.6 mb 0.00 in0.0 mm 0.00 in/hr0.0 mm/hr 0.00 in0.0 mm
09:30 AM 49.3°F9.6°C 46.8°F8.2°C 91% 3.8 mph S6.1 kmh S 10.7 mph17.2 kmh 29.50 in999.0 mb 0.00 in0.0 mm 0.00 in/hr0.0 mm/hr 0.00 in0.0 mm
09:20 AM 50.0°F10.0°C 46.6°F8.1°C 88% 3.1 mph SSE5.0 kmh SSE 7.6 mph12.2 kmh 29.50 in999.0 mb 0.00 in0.0 mm 0.00 in/hr0.0 mm/hr 0.00 in0.0 mm
09:10 AM 48.9°F9.4°C 46.1°F7.8°C 90% 2.2 mph S3.5 kmh S 6.9 mph11.1 kmh 29.50 in999.0 mb 0.00 in0.0 mm 0.00 in/hr0.0 mm/hr 0.00 in0.0 mm
09:00 AM 46.9°F8.3°C 45.6°F7.6°C 95% 2.2 mph SE3.5 kmh SE 6.9 mph11.1 kmh 29.51 in999.3 mb 0.00 in0.0 mm 0.00 in/hr0.0 mm/hr 0.00 in0.0 mm
08:50 AM 45.7°F7.6°C 45.1°F7.3°C 98% 3.1 mph S5.0 kmh S 9.2 mph14.8 kmh 29.51 in999.3 mb 0.00 in0.0 mm 0.00 in/hr0.0 mm/hr 0.00 in0.0 mm
08:40 AM 45.0°F7.2°C 44.4°F6.9°C 98% 2.2 mph SSE3.5 kmh SSE 8.3 mph13.4 kmh 29.51 in999.3 mb 0.00 in0.0 mm 0.00 in/hr0.0 mm/hr 0.00 in0.0 mm
08:30 AM 44.4°F6.9°C 43.6°F6.4°C 97% 3.1 mph SSE5.0 kmh SSE 8.3 mph13.4 kmh 29.51 in999.3 mb 0.00 in0.0 mm 0.00 in/hr0.0 mm/hr 0.00 in0.0 mm
08:20 AM 44.1°F6.7°C 43.3°F6.3°C 97% 2.2 mph SSE3.5 kmh SSE 6.0 mph9.7 kmh 29.51 in999.3 mb 0.00 in0.0 mm 0.00 in/hr0.0 mm/hr 0.00 in0.0 mm
08:10 AM 44.1°F6.7°C 43.3°F6.3°C 97% 3.8 mph SE6.1 kmh SE 6.0 mph9.7 kmh 29.51 in999.3 mb 0.00 in0.0 mm 0.00 in/hr0.0 mm/hr 0.00 in0.0 mm
08:00 AM 43.9°F6.6°C 43.1°F6.2°C 97% 3.1 mph SSE5.0 kmh SSE 6.0 mph9.7 kmh 29.51 in999.3 mb 0.00 in0.0 mm 0.00 in/hr0.0 mm/hr 0.00 in0.0 mm
07:50 AM 43.7°F6.5°C 43.2°F6.2°C 98% 2.2 mph SE3.5 kmh SE 4.5 mph7.2 kmh 29.51 in999.3 mb 0.00 in0.0 mm 0.00 in/hr0.0 mm/hr 0.00 in0.0 mm
07:40 AM 43.5°F6.4°C 43.0°F6.1°C 98% 2.2 mph SSE3.5 kmh SSE 5.4 mph8.7 kmh 29.51 in999.3 mb 0.00 in0.0 mm 0.00 in/hr0.0 mm/hr 0.00 in0.0 mm
07:30 AM 43.3°F6.3°C 42.8°F6.0°C 98% 1.6 mph SE2.6 kmh SE 4.5 mph7.2 kmh 29.51 in999.3 mb 0.00 in0.0 mm 0.00 in/hr0.0 mm/hr 0.00 in0.0 mm
07:20 AM 43.3°F6.3°C 42.8°F6.0°C 98% 1.6 mph SE2.6 kmh SE 3.8 mph6.1 kmh 29.51 in999.3 mb 0.00 in0.0 mm 0.00 in/hr0.0 mm/hr 0.00 in0.0 mm
07:10 AM 43.5°F6.4°C 43.0°F6.1°C 98% 1.6 mph SE2.6 kmh SE 5.4 mph8.7 kmh 29.51 in999.3 mb 0.00 in0.0 mm 0.00 in/hr0.0 mm/hr 0.00 in0.0 mm
07:00 AM 43.5°F6.4°C 43.0°F6.1°C 98% 2.2 mph SE3.5 kmh SE 4.5 mph7.2 kmh 29.51 in999.3 mb 0.00 in0.0 mm 0.00 in/hr0.0 mm/hr 0.00 in0.0 mm
06:50 AM 43.5°F6.4°C 43.3°F6.3°C 99% 2.2 mph SE3.5 kmh SE 4.5 mph7.2 kmh 29.51 in999.3 mb 0.00 in0.0 mm 0.00 in/hr0.0 mm/hr 0.00 in0.0 mm
06:40 AM 43.3°F6.3°C 42.8°F6.0°C 98% 1.6 mph SE2.6 kmh SE 4.5 mph7.2 kmh 29.51 in999.3 mb 0.00 in0.0 mm 0.00 in/hr0.0 mm/hr 0.00 in0.0 mm
06:30 AM 43.5°F6.4°C 43.0°F6.1°C 98% 1.6 mph SE2.6 kmh SE 3.8 mph6.1 kmh 29.51 in999.3 mb 0.00 in0.0 mm 0.00 in/hr0.0 mm/hr 0.00 in0.0 mm
06:20 AM 43.7°F6.5°C 43.2°F6.2°C 98% 2.2 mph SE3.5 kmh SE 4.5 mph7.2 kmh 29.51 in999.3 mb 0.00 in0.0 mm 0.00 in/hr0.0 mm/hr 0.00 in0.0 mm
06:10 AM 43.9°F6.6°C 43.1°F6.2°C 97% 1.6 mph SE2.6 kmh SE 4.5 mph7.2 kmh 29.51 in999.3 mb 0.00 in0.0 mm 0.00 in/hr0.0 mm/hr 0.00 in0.0 mm
06:00 AM 43.9°F6.6°C 43.1°F6.2°C 97% 2.2 mph SE3.5 kmh SE 4.5 mph7.2 kmh 29.51 in999.3 mb 0.00 in0.0 mm 0.00 in/hr0.0 mm/hr 0.00 in0.0 mm
05:50 AM 43.9°F6.6°C 43.1°F6.2°C 97% 3.1 mph SE5.0 kmh SE 4.5 mph7.2 kmh 29.51 in999.3 mb 0.00 in0.0 mm 0.00 in/hr0.0 mm/hr 0.00 in0.0 mm
05:40 AM 44.1°F6.7°C 43.3°F6.3°C 97% 3.1 mph SE5.0 kmh SE 6.0 mph9.7 kmh 29.51 in999.3 mb 0.00 in0.0 mm 0.00 in/hr0.0 mm/hr 0.00 in0.0 mm
05:30 AM 43.7°F6.5°C 42.9°F6.1°C 97% 2.2 mph SE3.5 kmh SE 6.0 mph9.7 kmh 29.51 in999.3 mb 0.00 in0.0 mm 0.00 in/hr0.0 mm/hr 0.00 in0.0 mm
05:20 AM 43.7°F6.5°C 42.9°F6.1°C 97% 1.6 mph SE2.6 kmh SE 4.5 mph7.2 kmh 29.51 in999.3 mb 0.00 in0.0 mm 0.00 in/hr0.0 mm/hr 0.00 in0.0 mm
05:10 AM 43.7°F6.5°C 42.6°F5.9°C 96% 2.2 mph SE3.5 kmh SE 4.5 mph7.2 kmh 29.51 in999.3 mb 0.00 in0.0 mm 0.00 in/hr0.0 mm/hr 0.00 in0.0 mm
05:00 AM 44.1°F6.7°C 42.7°F5.9°C 95% 2.2 mph SE3.5 kmh SE 3.8 mph6.1 kmh 29.51 in999.3 mb 0.00 in0.0 mm 0.00 in/hr0.0 mm/hr 0.00 in0.0 mm
04:50 AM 44.1°F6.7°C 42.7°F5.9°C 95% 2.2 mph SE3.5 kmh SE 5.4 mph8.7 kmh 29.51 in999.3 mb 0.00 in0.0 mm 0.00 in/hr0.0 mm/hr 0.00 in0.0 mm
04:40 AM 44.2°F6.8°C 42.9°F6.1°C 95% 2.2 mph SE3.5 kmh SE 5.4 mph8.7 kmh 29.51 in999.3 mb 0.00 in0.0 mm 0.00 in/hr0.0 mm/hr 0.00 in0.0 mm
04:30 AM 43.9°F6.6°C 42.5°F5.8°C 95% 2.2 mph SE3.5 kmh SE 5.4 mph8.7 kmh 29.51 in999.3 mb 0.00 in0.0 mm 0.00 in/hr0.0 mm/hr 0.00 in0.0 mm
04:20 AM 43.7°F6.5°C 42.4°F5.8°C 95% 3.1 mph SE5.0 kmh SE 4.5 mph7.2 kmh 29.51 in999.3 mb 0.00 in0.0 mm 0.00 in/hr0.0 mm/hr 0.00 in0.0 mm
04:10 AM 43.9°F6.6°C 42.3°F5.7°C 94% 2.2 mph SE3.5 kmh SE 4.5 mph7.2 kmh 29.51 in999.3 mb 0.00 in0.0 mm 0.00 in/hr0.0 mm/hr 0.00 in0.0 mm
04:00 AM 44.1°F6.7°C 42.4°F5.8°C 94% 2.2 mph SE3.5 kmh SE 5.4 mph8.7 kmh 29.51 in999.3 mb 0.00 in0.0 mm 0.00 in/hr0.0 mm/hr 0.00 in0.0 mm
03:50 AM 44.2°F6.8°C 42.6°F5.9°C 94% 2.2 mph SE3.5 kmh SE 6.0 mph9.7 kmh 29.51 in999.3 mb 0.00 in0.0 mm 0.00 in/hr0.0 mm/hr 0.00 in0.0 mm
03:40 AM 44.1°F6.7°C 42.4°F5.8°C 94% 2.2 mph SE3.5 kmh SE 5.4 mph8.7 kmh 29.51 in999.3 mb 0.00 in0.0 mm 0.00 in/hr0.0 mm/hr 0.00 in0.0 mm
03:30 AM 44.2°F6.8°C 42.6°F5.9°C 94% 2.2 mph SE3.5 kmh SE 5.4 mph8.7 kmh 29.51 in999.3 mb 0.00 in0.0 mm 0.00 in/hr0.0 mm/hr 0.00 in0.0 mm
03:20 AM 44.2°F6.8°C 42.3°F5.7°C 93% 2.2 mph SE3.5 kmh SE 4.5 mph7.2 kmh 29.52 in999.7 mb 0.00 in0.0 mm 0.00 in/hr0.0 mm/hr 0.00 in0.0 mm
03:10 AM 45.0°F7.2°C 42.5°F5.8°C 91% 1.6 mph SE2.6 kmh SE 6.0 mph9.7 kmh 29.52 in999.7 mb 0.00 in0.0 mm 0.00 in/hr0.0 mm/hr 0.00 in0.0 mm
03:00 AM 45.5°F7.5°C 43.0°F6.1°C 91% 2.2 mph SE3.5 kmh SE 3.8 mph6.1 kmh 29.52 in999.7 mb 0.00 in0.0 mm 0.00 in/hr0.0 mm/hr 0.00 in0.0 mm
02:50 AM 45.5°F7.5°C 43.3°F6.3°C 92% 2.2 mph SE3.5 kmh SE 6.0 mph9.7 kmh 29.52 in999.7 mb 0.00 in0.0 mm 0.00 in/hr0.0 mm/hr 0.00 in0.0 mm
02:40 AM 45.7°F7.6°C 43.5°F6.4°C 92% 1.6 mph SE2.6 kmh SE 4.5 mph7.2 kmh 29.52 in999.7 mb 0.00 in0.0 mm 0.00 in/hr0.0 mm/hr 0.00 in0.0 mm
02:30 AM 45.5°F7.5°C 43.3°F6.3°C 92% 2.2 mph SE3.5 kmh SE 3.8 mph6.1 kmh 29.52 in999.7 mb 0.00 in0.0 mm 0.00 in/hr0.0 mm/hr 0.00 in0.0 mm
02:20 AM 45.9°F7.7°C 43.7°F6.5°C 92% 2.2 mph SE3.5 kmh SE 5.4 mph8.7 kmh 29.52 in999.7 mb 0.00 in0.0 mm 0.00 in/hr0.0 mm/hr 0.00 in0.0 mm
02:10 AM 46.2°F7.9°C 43.7°F6.5°C 91% 2.2 mph SE3.5 kmh SE 6.0 mph9.7 kmh 29.52 in999.7 mb 0.00 in0.0 mm 0.00 in/hr0.0 mm/hr 0.00 in0.0 mm
02:00 AM 46.4°F8.0°C 43.9°F6.6°C 91% 1.6 mph S2.6 kmh S 5.4 mph8.7 kmh 29.52 in999.7 mb 0.00 in0.0 mm 0.00 in/hr0.0 mm/hr 0.00 in0.0 mm
01:50 AM 45.7°F7.6°C 43.8°F6.6°C 93% 3.1 mph SSE5.0 kmh SSE 5.4 mph8.7 kmh 29.52 in999.7 mb 0.00 in0.0 mm 0.00 in/hr0.0 mm/hr 0.00 in0.0 mm
01:40 AM 44.8°F7.1°C 43.2°F6.2°C 94% 3.1 mph SSE5.0 kmh SSE 5.4 mph8.7 kmh 29.53 in1000.0 mb 0.00 in0.0 mm 0.00 in/hr0.0 mm/hr 0.00 in0.0 mm
01:30 AM 44.2°F6.8°C 42.9°F6.1°C 95% 1.6 mph SE2.6 kmh SE 4.5 mph7.2 kmh 29.53 in1000.0 mb 0.00 in0.0 mm 0.00 in/hr0.0 mm/hr 0.00 in0.0 mm
01:20 AM 43.7°F6.5°C 42.4°F5.8°C 95% 3.1 mph SE5.0 kmh SE 4.5 mph7.2 kmh 29.53 in1000.0 mb 0.00 in0.0 mm 0.00 in/hr0.0 mm/hr 0.00 in0.0 mm
01:10 AM 43.3°F6.3°C 42.3°F5.7°C 96% 2.2 mph SE3.5 kmh SE 4.5 mph7.2 kmh 29.53 in1000.0 mb 0.00 in0.0 mm 0.00 in/hr0.0 mm/hr 0.00 in0.0 mm
01:00 AM 42.4°F5.8°C 41.9°F5.5°C 98% 2.2 mph SE3.5 kmh SE 3.8 mph6.1 kmh 29.53 in1000.0 mb 0.00 in0.0 mm 0.00 in/hr0.0 mm/hr 0.00 in0.0 mm
12:50 AM 41.9°F5.5°C 41.6°F5.3°C 99% 2.2 mph SE3.5 kmh SE 4.5 mph7.2 kmh 29.53 in1000.0 mb 0.00 in0.0 mm 0.00 in/hr0.0 mm/hr 0.00 in0.0 mm
12:40 AM 41.2°F5.1°C 40.9°F4.9°C 99% 3.1 mph SE5.0 kmh SE 5.4 mph8.7 kmh 29.54 in1000.3 mb 0.00 in0.0 mm 0.00 in/hr0.0 mm/hr 0.00 in0.0 mm
12:30 AM 41.0°F5.0°C 40.7°F4.8°C 99% 3.8 mph SE6.1 kmh SE 5.4 mph8.7 kmh 29.54 in1000.3 mb 0.00 in0.0 mm 0.00 in/hr0.0 mm/hr 0.00 in0.0 mm
12:20 AM 40.8°F4.9°C 40.6°F4.8°C 99% 3.8 mph SE6.1 kmh SE 5.4 mph8.7 kmh 29.54 in1000.3 mb 0.00 in0.0 mm 0.00 in/hr0.0 mm/hr 0.00 in0.0 mm
12:10 AM 41.0°F5.0°C 40.7°F4.8°C 99% 3.8 mph SE6.1 kmh SE 5.4 mph8.7 kmh 29.55 in1000.7 mb 0.00 in0.0 mm 0.00 in/hr0.0 mm/hr 0.00 in0.0 mm
12:00 AM 41.0°F5.0°C 40.7°F4.8°C 99% 3.8 mph SE6.1 kmh SE 5.4 mph8.7 kmh 29.55 in1000.7 mb 0.00 in0.0 mm 0.00 in/hr0.0 mm/hr 0.00 in0.0 mm